Time;durP1;ratioP1;P1;durP2;ratioP2;P2;SDS_P1;SDS_P2;PMS_P1;PMS_P2;Temp;Humidity;BMP_temperature;BMP_pressure;BME280_temperature;BME280_humidity;BME280_pressure;Samples;Min_cycle;Max_cycle;Signal;HPM_P1;HPM_P2
2021/07/19 00:03:36;;;;;;;11.53;4.30;;;19.20;71.20;;;;;;10418236;28;20226;-28
2021/07/19 00:08:58;;;;;;;11.80;4.63;;;19.30;71.00;;;;;;10417920;28;20630;-27
2021/07/19 00:14:20;;;;;;;10.77;4.37;;;19.10;71.80;;;;;;10454465;28;20593;-28
2021/07/19 00:19:46;;;;;;;9.27;4.27;;;19.10;71.30;;;;;;10453640;28;20567;-28
2021/07/19 00:25:10;;;;;;;8.47;4.13;;;19.00;72.20;;;;;;10448983;28;20827;-29
2021/07/19 00:30:36;;;;;;;11.37;4.13;;;19.10;71.90;;;;;;10417645;28;20197;-30
2021/07/19 00:36:00;;;;;;;10.97;4.30;;;19.00;72.00;;;;;;10417136;28;20205;-29
2021/07/19 00:41:22;;;;;;;11.27;4.70;;;18.90;72.10;;;;;;10440169;28;20708;-29
2021/07/19 00:46:44;;;;;;;9.37;4.10;;;18.90;72.80;;;;;;10460469;28;20716;-28
2021/07/19 00:52:08;;;;;;;7.37;4.07;;;18.80;72.70;;;;;;10432199;28;20601;-27
2021/07/19 00:57:32;;;;;;;12.97;4.20;;;18.90;72.60;;;;;;10415109;28;20190;-28
2021/07/19 01:02:55;;;;;;;11.90;3.97;;;18.80;72.40;;;;;;10415680;28;20228;-28
2021/07/19 01:08:20;;;;;;;7.23;3.80;;;18.90;71.20;;;;;;10415019;28;20198;-29
2021/07/19 01:13:42;;;;;;;12.83;4.03;;;18.90;70.80;;;;;;10421988;28;20295;-27
2021/07/19 01:19:04;;;;;;;12.70;4.30;;;18.90;70.90;;;;;;10489017;28;20203;-28
2021/07/19 01:24:51;;;;;;;8.17;3.53;;;18.80;71.10;;;;;;10458317;28;20236;-27
2021/07/19 01:30:15;;;;;;;7.30;3.37;;;18.70;71.10;;;;;;10455616;28;20198;-28
2021/07/19 01:35:41;;;;;;;11.60;4.30;;;18.80;71.40;;;;;;10449107;28;20564;-30
2021/07/19 01:41:03;;;;;;;8.77;3.80;;;18.70;70.50;;;;;;10455391;28;20607;-27
2021/07/19 01:46:29;;;;;;;6.93;3.07;;;18.70;71.60;;;;;;10475578;28;20721;-27
2021/07/19 01:51:52;;;;;;;9.20;3.43;;;18.60;71.30;;;;;;10471980;28;20213;-28
2021/07/19 01:57:15;;;;;;;9.73;3.50;;;18.80;71.10;;;;;;10453397;28;20877;-28
2021/07/19 02:02:39;;;;;;;7.40;3.60;;;18.70;71.10;;;;;;10452405;28;20219;-27
2021/07/19 02:08:03;;;;;;;9.07;3.70;;;19.00;70.60;;;;;;10465822;28;20196;-28
2021/07/19 02:13:28;;;;;;;9.03;3.30;;;19.20;69.70;;;;;;10477535;22;20708;-23
2021/07/19 02:18:52;;;;;;;6.23;3.30;;;19.10;69.80;;;;;;10425551;28;20208;-24
2021/07/19 02:24:16;;;;;;;8.03;3.13;;;19.10;68.90;;;;;;10397161;28;20739;-24
2021/07/19 02:29:38;;;;;;;8.70;3.47;;;19.00;68.70;;;;;;10377650;28;20194;-23
2021/07/19 02:35:02;;;;;;;13.20;3.03;;;19.10;69.00;;;;;;10385410;28;20229;-23
2021/07/19 02:40:25;;;;;;;6.07;2.90;;;19.00;68.50;;;;;;10404790;28;20703;-23
2021/07/19 02:45:49;;;;;;;5.30;2.57;;;18.80;67.80;;;;;;10384424;28;20408;-24
2021/07/19 02:51:14;;;;;;;6.93;2.77;;;18.80;67.40;;;;;;10402922;28;20205;-23
2021/07/19 02:56:40;;;;;;;9.17;2.73;;;18.70;66.70;;;;;;10385688;28;20269;-23
2021/07/19 03:02:03;;;;;;;6.53;2.43;;;18.70;66.10;;;;;;10370172;28;20736;-23
2021/07/19 03:07:30;;;;;;;5.70;2.50;;;18.70;66.00;;;;;;10370911;28;20222;-23
2021/07/19 03:12:55;;;;;;;7.03;2.50;;;18.70;66.10;;;;;;10338323;28;20214;-23
2021/07/19 03:18:19;;;;;;;6.27;2.57;;;19.00;66.80;;;;;;10378836;28;20676;-24
2021/07/19 03:23:44;;;;;;;7.17;2.70;;;18.90;66.10;;;;;;10368941;28;20222;-23
2021/07/19 03:29:08;;;;;;;5.97;2.30;;;19.00;66.30;;;;;;10367922;28;20574;-23
2021/07/19 03:34:31;;;;;;;10.70;2.60;;;19.20;66.60;;;;;;10369579;28;20721;-24
2021/07/19 03:39:55;;;;;;;4.10;2.47;;;19.30;66.10;;;;;;10369976;28;20202;-23
2021/07/19 03:45:18;;;;;;;4.67;2.60;;;19.40;66.10;;;;;;10386602;28;20229;-24
2021/07/19 03:50:40;;;;;;;6.80;2.50;;;19.40;66.50;;;;;;10364281;28;20194;-23
2021/07/19 03:56:05;;;;;;;6.67;2.73;;;19.40;66.10;;;;;;10368601;28;20218;-23
2021/07/19 04:01:27;;;;;;;8.17;2.90;;;19.30;67.00;;;;;;10368014;28;20681;-24
2021/07/19 04:06:50;;;;;;;7.37;3.10;;;19.40;67.00;;;;;;10366699;28;20217;-23
2021/07/19 04:12:16;;;;;;;6.47;2.93;;;19.40;67.30;;;;;;10378135;28;20229;-23
2021/07/19 04:17:38;;;;;;;8.17;2.87;;;19.40;67.30;;;;;;10373688;28;20189;-24
2021/07/19 04:23:01;;;;;;;6.37;2.87;;;19.40;67.80;;;;;;10376920;28;20217;-23
2021/07/19 04:28:24;;;;;;;8.23;3.07;;;19.40;68.20;;;;;;10374616;28;20186;-23
2021/07/19 04:33:49;;;;;;;8.47;3.13;;;19.40;68.40;;;;;;10374616;28;20290;-23
2021/07/19 04:39:12;;;;;;;7.73;3.40;;;19.40;68.80;;;;;;10372428;28;20337;-23
2021/07/19 04:44:37;;;;;;;10.20;3.33;;;19.40;68.70;;;;;;10386238;28;20225;-25
2021/07/19 04:49:59;;;;;;;8.57;3.03;;;19.30;69.20;;;;;;10417358;28;20194;-23
2021/07/19 04:55:24;;;;;;;8.90;3.13;;;19.40;69.30;;;;;;10412255;28;20218;-23
2021/07/19 05:00:49;;;;;;;7.17;3.37;;;19.40;69.50;;;;;;10380365;28;20214;-23
2021/07/19 05:06:13;;;;;;;10.40;3.60;;;19.50;69.40;;;;;;10373280;28;20226;-23
2021/07/19 05:11:36;;;;;;;8.23;3.03;;;19.30;69.90;;;;;;10372370;28;20599;-23
2021/07/19 05:17:01;;;;;;;5.10;2.70;;;19.20;70.40;;;;;;10373928;28;20191;-22
2021/07/19 05:22:24;;;;;;;9.50;3.63;;;19.40;70.60;;;;;;10382071;28;20218;-23
2021/07/19 05:28:07;;;;;;;10.97;3.83;;;19.50;70.30;;;;;;10372803;28;20218;-23
2021/07/19 05:33:30;;;;;;;13.30;3.87;;;19.50;70.20;;;;;;10374203;28;20240;-23
2021/07/19 05:38:52;;;;;;;11.90;4.43;;;19.50;70.00;;;;;;10371096;28;20190;-23
2021/07/19 05:44:14;;;;;;;10.33;3.30;;;19.50;70.10;;;;;;10381777;28;20233;-22
2021/07/19 05:49:38;;;;;;;9.57;3.00;;;19.60;70.60;;;;;;10413151;28;20579;-23
2021/07/19 05:55:01;;;;;;;9.73;3.37;;;19.50;69.70;;;;;;10379145;28;20221;-23
2021/07/19 06:00:23;;;;;;;9.73;3.10;;;19.50;70.80;;;;;;10372818;28;20278;-24
2021/07/19 06:05:48;;;;;;;7.53;3.50;;;19.40;70.50;;;;;;10372279;28;20218;-22
2021/07/19 06:11:10;;;;;;;10.87;3.63;;;19.40;70.20;;;;;;10372792;28;20199;-23
2021/07/19 06:16:32;;;;;;;5.57;2.83;;;19.30;70.80;;;;;;10370486;28;20199;-24
2021/07/19 06:21:55;;;;;;;8.10;2.80;;;19.30;70.50;;;;;;10387444;28;20218;-24
2021/07/19 06:27:18;;;;;;;6.97;3.30;;;19.30;70.00;;;;;;10406991;28;20250;-23
2021/07/19 06:32:41;;;;;;;8.57;3.40;;;19.20;69.60;;;;;;10407912;28;20692;-23
2021/07/19 06:38:04;;;;;;;7.93;3.30;;;19.30;69.50;;;;;;10412446;28;20197;-22
2021/07/19 06:43:26;;;;;;;7.80;3.07;;;19.30;70.10;;;;;;10401103;28;20213;-22
2021/07/19 06:48:48;;;;;;;6.83;3.33;;;19.40;70.10;;;;;;10394765;28;20218;-24
2021/07/19 06:54:12;;;;;;;4.53;2.30;;;19.40;69.30;;;;;;10367472;28;20245;-24
2021/07/19 06:59:34;;;;;;;5.53;2.83;;;19.30;68.80;;;;;;10368367;28;20209;-23
2021/07/19 07:04:56;;;;;;;8.60;3.20;;;19.40;69.60;;;;;;10381195;28;20225;-22
2021/07/19 07:10:19;;;;;;;8.30;3.37;;;19.40;69.10;;;;;;10370081;28;20198;-23
2021/07/19 07:15:41;;;;;;;8.07;3.20;;;19.50;68.50;;;;;;10369264;28;20226;-23
2021/07/19 07:21:04;;;;;;;9.80;3.40;;;19.50;68.80;;;;;;10364984;28;20198;-23
2021/07/19 07:26:27;;;;;;;9.43;2.93;;;19.60;68.20;;;;;;10356020;28;20214;-23
2021/07/19 07:31:49;;;;;;;5.83;3.27;;;19.70;68.60;;;;;;10368781;28;20229;-23
2021/07/19 07:37:13;;;;;;;5.87;3.13;;;19.70;68.40;;;;;;10370196;28;20191;-23
2021/07/19 07:42:36;;;;;;;6.53;3.40;;;19.70;68.60;;;;;;10381635;28;20351;-23
2021/07/19 07:47:58;;;;;;;6.97;3.70;;;19.70;67.00;;;;;;10416673;28;20218;-22
2021/07/19 07:53:20;;;;;;;6.50;3.27;;;19.70;67.80;;;;;;10391892;28;20226;-25
2021/07/19 07:58:44;;;;;;;5.23;3.27;;;19.60;68.10;;;;;;10377165;28;20566;-24
2021/07/19 08:04:06;;;;;;;9.93;4.73;;;19.70;67.80;;;;;;10377177;28;20210;-23
2021/07/19 08:09:29;;;;;;;10.47;3.93;;;19.70;67.00;;;;;;10377058;28;20197;-23
2021/07/19 08:14:52;;;;;;;6.73;4.40;;;19.80;67.20;;;;;;10423343;22;20237;-27
2021/07/19 08:20:17;;;;;;;9.57;4.13;;;19.90;67.90;;;;;;10491200;28;20204;-29
2021/07/19 08:25:39;;;;;;;10.67;3.97;;;20.00;67.50;;;;;;10508542;28;20232;-35
2021/07/19 08:31:03;;;;;;;7.77;3.90;;;20.00;67.80;;;;;;10537447;28;20282;-30
2021/07/19 08:36:25;;;;;;;8.27;4.23;;;20.00;68.80;;;;;;10529864;28;20215;-30
2021/07/19 08:41:47;;;;;;;7.90;3.67;;;20.10;69.40;;;;;;10538892;28;20195;-29
2021/07/19 08:47:13;;;;;;;7.30;3.63;;;20.20;70.00;;;;;;10531272;28;20228;-31
2021/07/19 08:52:36;;;;;;;7.23;3.50;;;20.20;70.30;;;;;;10533207;28;20682;-32
2021/07/19 08:58:01;;;;;;;6.07;3.63;;;20.20;70.60;;;;;;10538272;28;20212;-31
2021/07/19 09:03:25;;;;;;;7.23;3.97;;;20.30;70.80;;;;;;10538128;28;20690;-29
2021/07/19 09:08:48;;;;;;;6.23;3.83;;;20.30;70.90;;;;;;10501356;28;20231;-29
2021/07/19 09:14:14;;;;;;;5.43;3.80;;;20.30;71.00;;;;;;10494832;28;20224;-29
2021/07/19 09:19:43;;;;;;;8.30;4.37;;;20.30;70.10;;;;;;10496106;28;20279;-30
2021/07/19 09:25:08;;;;;;;4.97;3.93;;;20.30;70.50;;;;;;10504264;28;20695;-31
2021/07/19 09:30:31;;;;;;;7.77;4.23;;;20.30;69.60;;;;;;10532107;28;20204;-29
2021/07/19 09:35:54;;;;;;;5.50;4.00;;;20.30;69.80;;;;;;10538332;28;20576;-29
2021/07/19 09:41:24;;;;;;;5.07;3.43;;;20.40;69.70;;;;;;10509741;28;20199;-28
2021/07/19 09:46:47;;;;;;;7.33;4.20;;;20.40;69.50;;;;;;10495068;28;20300;-32
2021/07/19 09:52:12;;;;;;;7.10;3.63;;;20.40;69.50;;;;;;10495042;28;20572;-30
2021/07/19 09:57:34;;;;;;;8.60;4.33;;;20.40;70.00;;;;;;10519953;28;20215;-29
2021/07/19 10:02:56;;;;;;;10.70;4.43;;;20.40;71.00;;;;;;10533793;28;20675;-29
2021/07/19 10:08:24;;;;;;;10.03;4.57;;;20.40;71.20;;;;;;10535068;28;20227;-29
2021/07/19 10:13:49;;;;;;;10.37;4.73;;;20.40;70.50;;;;;;10530714;28;20586;-31
2021/07/19 10:19:13;;;;;;;8.30;5.07;;;20.40;70.50;;;;;;10517342;28;20566;-31
2021/07/19 10:24:39;;;;;;;9.00;4.30;;;20.50;69.80;;;;;;10530002;28;20227;-30
2021/07/19 10:30:02;;;;;;;6.80;4.07;;;20.50;70.00;;;;;;10499351;28;20191;-30
2021/07/19 10:35:28;;;;;;;8.40;4.33;;;20.40;68.70;;;;;;10535807;28;20649;-31
2021/07/19 10:40:57;;;;;;;6.77;4.20;;;20.50;69.20;;;;;;10534794;28;20274;-31
2021/07/19 10:46:26;;;;;;;6.20;4.33;;;20.50;69.30;;;;;;10507297;28;20212;-30
2021/07/19 10:51:49;;;;;;;7.10;4.10;;;20.40;69.20;;;;;;10533362;28;20282;-30
2021/07/19 10:57:17;;;;;;;6.00;4.07;;;20.50;68.80;;;;;;10535191;28;20675;-30
2021/07/19 11:02:39;;;;;;;7.27;4.60;;;20.50;68.90;;;;;;10534654;28;20252;-32
2021/07/19 11:08:01;;;;;;;4.97;4.00;;;20.50;69.20;;;;;;10533204;28;20220;-30
2021/07/19 11:13:31;;;;;;;7.30;4.97;;;20.40;69.40;;;;;;10534690;28;20199;-32
2021/07/19 11:18:55;;;;;;;7.30;5.17;;;20.50;69.20;;;;;;10540086;28;20726;-30
2021/07/19 11:24:20;;;;;;;11.47;6.10;;;20.50;69.80;;;;;;10538070;28;20963;-29
2021/07/19 11:29:44;;;;;;;11.67;6.40;;;20.50;69.90;;;;;;10538530;28;20260;-33
2021/07/19 11:35:12;;;;;;;11.73;6.13;;;20.50;69.70;;;;;;10534151;28;20215;-29
2021/07/19 11:40:37;;;;;;;11.47;5.23;;;20.50;69.80;;;;;;10540551;28;20192;-30
2021/07/19 11:46:00;;;;;;;11.97;5.83;;;20.50;69.20;;;;;;10534930;28;20216;-33
2021/07/19 11:51:22;;;;;;;11.40;6.03;;;20.50;69.60;;;;;;10516074;28;20563;-30
2021/07/19 11:56:47;;;;;;;11.17;5.70;;;20.50;70.40;;;;;;10540874;28;20212;-29
2021/07/19 12:02:10;;;;;;;9.67;5.20;;;20.50;70.40;;;;;;10535241;28;20199;-31
2021/07/19 12:07:32;;;;;;;7.10;5.03;;;20.50;70.50;;;;;;10497365;28;20216;-32
2021/07/19 12:12:56;;;;;;;7.70;5.37;;;20.50;70.80;;;;;;10492967;28;20212;-30
2021/07/19 12:18:31;;;;;;;7.37;5.03;;;20.50;70.70;;;;;;10523266;28;20227;-29
2021/07/19 12:23:55;;;;;;;11.07;5.10;;;20.50;70.90;;;;;;10534358;28;20671;-34
2021/07/19 12:29:19;;;;;;;8.77;5.17;;;20.50;70.80;;;;;;10533052;28;20720;-33
2021/07/19 12:34:44;;;;;;;9.03;4.73;;;20.50;70.80;;;;;;10533729;28;20294;-30
2021/07/19 12:40:07;;;;;;;10.20;5.63;;;20.60;70.80;;;;;;10520336;28;20268;-33
2021/07/19 12:45:29;;;;;;;14.37;5.30;;;20.50;70.60;;;;;;10492072;28;20595;-33
2021/07/19 12:51:02;;;;;;;12.50;5.57;;;20.50;70.50;;;;;;10511626;28;20204;-34
2021/07/19 12:56:26;;;;;;;7.23;4.90;;;20.50;70.30;;;;;;10528615;28;20212;-31
2021/07/19 13:01:50;;;;;;;8.97;5.07;;;20.60;70.90;;;;;;10539835;28;20191;-28
2021/07/19 13:07:13;;;;;;;8.00;4.57;;;20.50;70.80;;;;;;10537854;28;20219;-32
2021/07/19 13:12:36;;;;;;;8.77;4.93;;;20.60;70.70;;;;;;10538138;28;20388;-30
2021/07/19 13:18:04;;;;;;;11.07;5.37;;;20.60;70.60;;;;;;10536003;28;20226;-32
2021/07/19 13:23:32;;;;;;;9.17;5.40;;;20.50;70.10;;;;;;10536941;28;20199;-30
2021/07/19 13:29:04;;;;;;;13.73;4.93;;;20.60;70.20;;;;;;10529333;28;20215;-30
2021/07/19 13:34:26;;;;;;;13.23;5.23;;;20.60;69.90;;;;;;10533541;28;20224;-29
2021/07/19 13:39:49;;;;;;;17.03;5.83;;;20.60;69.90;;;;;;10534800;28;20183;-30
2021/07/19 13:45:14;;;;;;;24.37;5.90;;;20.60;70.10;;;;;;10533311;28;20220;-29
2021/07/19 13:50:36;;;;;;;17.73;5.50;;;20.70;70.20;;;;;;10536424;28;20582;-33
2021/07/19 13:56:01;;;;;;;8.50;5.03;;;20.70;70.20;;;;;;10536505;28;20694;-33
2021/07/19 14:01:23;;;;;;;8.37;5.10;;;20.60;70.20;;;;;;10537161;28;20696;-31
2021/07/19 14:06:45;;;;;;;8.97;4.63;;;20.60;70.00;;;;;;10535968;28;20215;-31
2021/07/19 14:12:09;;;;;;;11.50;5.30;;;20.60;70.00;;;;;;10530387;28;20199;-29
2021/07/19 14:17:31;;;;;;;8.00;4.53;;;20.60;70.60;;;;;;10535420;28;20223;-34
2021/07/19 14:22:53;;;;;;;10.03;4.97;;;20.60;70.90;;;;;;10531815;28;20196;-30
2021/07/19 14:28:17;;;;;;;6.40;3.93;;;20.60;70.80;;;;;;10548351;22;20228;-23
2021/07/19 14:33:39;;;;;;;9.83;4.20;;;20.60;70.60;;;;;;10475758;28;20192;-24
2021/07/19 14:39:02;;;;;;;7.03;4.10;;;20.60;69.70;;;;;;10529778;28;20682;-24
2021/07/19 14:44:25;;;;;;;6.13;4.37;;;20.60;70.40;;;;;;10487831;28;20587;-23
2021/07/19 14:49:47;;;;;;;6.00;4.50;;;20.60;70.90;;;;;;10453438;28;20228;-25
2021/07/19 14:55:10;;;;;;;8.90;4.40;;;20.60;70.90;;;;;;10469044;28;20216;-24
2021/07/19 15:00:34;;;;;;;5.20;4.10;;;20.60;71.40;;;;;;10488935;28;20676;-23
2021/07/19 15:05:56;;;;;;;5.37;3.93;;;20.60;71.60;;;;;;10489252;28;20212;-24
2021/07/19 15:11:18;;;;;;;6.73;4.10;;;20.60;71.90;;;;;;10492940;28;20622;-23
2021/07/19 15:16:41;;;;;;;6.27;4.10;;;20.60;72.00;;;;;;10489497;28;20726;-23
2021/07/19 15:22:04;;;;;;;4.37;3.50;;;20.60;72.00;;;;;;10491877;28;20200;-24
2021/07/19 15:27:26;;;;;;;4.63;3.80;;;20.60;72.30;;;;;;10486277;28;20231;-23
2021/07/19 15:32:50;;;;;;;5.20;4.20;;;20.60;72.20;;;;;;10491267;28;20204;-24
2021/07/19 15:38:12;;;;;;;5.10;3.70;;;20.60;72.20;;;;;;10492591;28;20217;-24
2021/07/19 15:43:34;;;;;;;4.23;3.83;;;20.60;72.30;;;;;;10491435;28;20396;-23
2021/07/19 15:48:57;;;;;;;5.93;4.13;;;20.60;72.50;;;;;;10460564;28;20225;-23
2021/07/19 15:54:19;;;;;;;6.33;4.07;;;20.60;72.50;;;;;;10458320;28;20200;-24
2021/07/19 15:59:41;;;;;;;7.80;4.77;;;20.60;72.70;;;;;;10491369;28;20197;-24
2021/07/19 16:05:06;;;;;;;7.07;3.70;;;20.60;72.70;;;;;;10495600;28;20714;-26
2021/07/19 16:10:28;;;;;;;5.07;3.50;;;20.60;72.90;;;;;;10492580;28;20611;-25
2021/07/19 16:15:50;;;;;;;6.27;3.73;;;20.60;72.80;;;;;;10495898;28;20583;-26
2021/07/19 16:21:14;;;;;;;5.60;3.37;;;20.60;72.80;;;;;;10466408;28;20556;-25
2021/07/19 16:26:36;;;;;;;5.47;3.60;;;20.60;72.90;;;;;;10493062;28;20260;-24
2021/07/19 16:31:58;;;;;;;30.27;4.87;;;20.60;73.00;;;;;;10497699;28;20201;-23
2021/07/19 16:37:21;;;;;;;10.93;3.80;;;20.60;72.40;;;;;;10497486;28;20622;-24
2021/07/19 16:42:43;;;;;;;12.13;4.13;;;20.60;72.70;;;;;;10498844;28;20215;-24
2021/07/19 16:48:06;;;;;;;5.70;3.60;;;20.60;73.10;;;;;;10481047;28;20213;-24
2021/07/19 16:53:29;;;;;;;6.73;3.90;;;20.60;73.10;;;;;;10461438;28;20215;-24
2021/07/19 16:58:52;;;;;;;9.77;3.90;;;20.60;72.80;;;;;;10474164;28;20213;-25
2021/07/19 17:04:14;;;;;;;7.87;4.00;;;20.60;73.10;;;;;;10478568;28;20201;-24
2021/07/19 17:09:37;;;;;;;6.93;3.93;;;20.60;73.50;;;;;;10467045;28;20847;-25
2021/07/19 17:14:59;;;;;;;8.43;3.57;;;20.60;73.60;;;;;;10494737;28;20707;-22
2021/07/19 17:20:25;;;;;;;8.63;3.53;;;20.60;73.60;;;;;;10490451;28;20189;-24
2021/07/19 17:25:49;;;;;;;6.87;3.67;;;20.60;73.60;;;;;;10496852;28;20595;-23
2021/07/19 17:31:11;;;;;;;6.33;3.50;;;20.60;73.80;;;;;;10487912;28;20200;-24
2021/07/19 17:36:33;;;;;;;8.70;3.70;;;20.60;73.90;;;;;;10472440;28;20301;-24
2021/07/19 17:41:56;;;;;;;5.10;3.90;;;20.60;73.70;;;;;;10475659;28;20616;-25
2021/07/19 17:47:18;;;;;;;8.37;4.13;;;20.60;73.80;;;;;;10473683;28;20224;-24
2021/07/19 17:52:41;;;;;;;16.43;4.20;;;20.60;73.60;;;;;;10475763;28;20579;-23
2021/07/19 17:58:05;;;;;;;18.50;4.53;;;20.60;73.80;;;;;;10467198;28;20212;-23
2021/07/19 18:03:27;;;;;;;11.77;4.30;;;20.60;73.80;;;;;;10473951;28;20199;-24
2021/07/19 18:08:49;;;;;;;7.17;3.33;;;20.60;73.80;;;;;;10488889;28;20594;-23
2021/07/19 18:14:15;;;;;;;7.23;4.13;;;20.60;73.90;;;;;;10487119;28;20196;-24
2021/07/19 18:19:37;;;;;;;5.37;3.50;;;20.50;73.70;;;;;;10475255;28;20691;-25
2021/07/19 18:25:07;;;;;;;9.80;4.37;;;20.60;74.00;;;;;;10469018;28;20208;-22
2021/07/19 18:30:36;;;;;;;4.80;3.50;;;20.50;73.90;;;;;;10493338;28;20216;-23
2021/07/19 18:36:00;;;;;;;5.73;3.47;;;20.50;73.80;;;;;;10474063;28;20213;-26
2021/07/19 18:41:23;;;;;;;5.70;3.53;;;20.50;73.30;;;;;;10488002;28;20590;-30
2021/07/19 18:46:46;;;;;;;6.10;3.20;;;20.50;72.90;;;;;;10488169;28;20225;-24
2021/07/19 18:52:08;;;;;;;6.03;3.67;;;20.50;72.60;;;;;;10486315;28;20203;-23
2021/07/19 18:57:30;;;;;;;4.57;3.23;;;20.50;72.70;;;;;;10483513;28;20208;-24
2021/07/19 19:02:55;;;;;;;5.13;3.47;;;20.50;72.50;;;;;;10488438;28;20200;-25
2021/07/19 19:08:17;;;;;;;4.43;3.10;;;20.50;72.40;;;;;;10445448;28;20221;-24
2021/07/19 19:13:39;;;;;;;5.63;3.17;;;20.50;72.00;;;;;;10452151;28;20436;-23
2021/07/19 19:19:04;;;;;;;5.70;3.10;;;20.50;72.00;;;;;;10471728;28;20211;-24
2021/07/19 19:24:26;;;;;;;4.87;3.33;;;20.50;72.80;;;;;;10461814;28;20683;-23
2021/07/19 19:29:48;;;;;;;5.23;3.33;;;20.50;72.30;;;;;;10464111;28;20259;-23
2021/07/19 19:35:13;;;;;;;3.93;3.13;;;20.50;72.10;;;;;;10469912;28;20212;-24
2021/07/19 19:40:35;;;;;;;5.77;2.63;;;20.50;72.00;;;;;;10475339;28;20207;-23
2021/07/19 19:45:57;;;;;;;5.80;3.20;;;20.50;72.00;;;;;;10480957;28;20215;-24
2021/07/19 19:51:21;;;;;;;5.60;2.93;;;20.50;69.20;;;;;;10477854;28;20223;-24
2021/07/19 19:56:43;;;;;;;4.83;3.03;;;20.50;68.30;;;;;;10479877;28;20219;-24
2021/07/19 20:02:06;;;;;;;6.00;3.23;;;20.40;67.70;;;;;;10477797;28;20209;-24
2021/07/19 20:07:30;;;;;;;5.00;3.07;;;20.40;67.40;;;;;;10478572;28;20220;-23
2021/07/19 20:12:52;;;;;;;4.53;2.70;;;20.40;67.70;;;;;;10479327;28;20204;-23
2021/07/19 20:18:15;;;;;;;5.87;3.50;;;20.40;67.30;;;;;;10477173;28;20219;-24
2021/07/19 20:23:38;;;;;;;4.80;2.57;;;20.40;67.30;;;;;;10479864;28;20207;-24
2021/07/19 20:29:00;;;;;;;5.33;3.60;;;20.40;67.00;;;;;;10483823;28;20217;-22
2021/07/19 20:34:22;;;;;;;6.13;3.20;;;20.30;67.00;;;;;;10482354;28;20234;-23
2021/07/19 20:39:46;;;;;;;5.70;3.60;;;20.30;67.10;;;;;;10482854;28;20196;-23
2021/07/19 20:45:10;;;;;;;6.93;3.03;;;20.30;67.30;;;;;;10478025;28;20621;-24
2021/07/19 20:50:32;;;;;;;5.70;3.27;;;20.30;66.70;;;;;;10474860;28;20215;-23
2021/07/19 20:55:57;;;;;;;4.03;2.60;;;20.30;66.90;;;;;;10475137;28;20734;-23
2021/07/19 21:01:20;;;;;;;7.30;3.57;;;20.30;66.50;;;;;;10477534;28;20208;-22
2021/07/19 21:06:44;;;;;;;4.27;2.97;;;20.30;67.00;;;;;;10480154;28;20208;-23
2021/07/19 21:12:13;;;;;;;5.43;3.10;;;20.30;67.20;;;;;;10491326;28;20197;-23
2021/07/19 21:17:35;;;;;;;3.93;2.80;;;20.20;67.10;;;;;;10510474;22;20232;-30
2021/07/19 21:22:57;;;;;;;3.80;2.63;;;20.30;67.40;;;;;;10495876;28;20188;-31
2021/07/19 21:28:21;;;;;;;4.47;3.07;;;20.30;67.40;;;;;;10475428;28;20247;-30
2021/07/19 21:33:43;;;;;;;4.07;2.60;;;20.30;67.90;;;;;;10454568;28;20207;-29
2021/07/19 21:39:05;;;;;;;5.07;2.73;;;20.20;67.20;;;;;;10452115;28;20212;-31
2021/07/19 21:44:29;;;;;;;5.07;2.53;;;20.30;66.80;;;;;;10450067;28;20580;-31
2021/07/19 21:49:51;;;;;;;4.17;2.43;;;20.30;66.80;;;;;;10453081;28;20225;-31
2021/07/19 21:55:14;;;;;;;2.93;2.33;;;20.20;66.90;;;;;;10454352;28;20208;-30
2021/07/19 22:00:38;;;;;;;5.10;2.67;;;20.20;66.70;;;;;;10452998;28;20417;-30
2021/07/19 22:06:00;;;;;;;5.87;2.50;;;20.20;66.70;;;;;;10430635;28;20676;-31
2021/07/19 22:11:22;;;;;;;4.27;2.60;;;20.20;66.30;;;;;;10420987;28;20224;-30
2021/07/19 22:16:46;;;;;;;3.37;2.13;;;20.20;65.80;;;;;;10454103;28;20250;-31
2021/07/19 22:22:08;;;;;;;5.80;2.60;;;20.20;65.90;;;;;;10454224;28;20189;-30
2021/07/19 22:27:30;;;;;;;2.40;2.10;;;20.20;65.60;;;;;;10452773;28;20712;-32
2021/07/19 22:32:54;;;;;;;2.27;2.07;;;20.10;65.50;;;;;;10452963;28;20600;-30
2021/07/19 22:38:16;;;;;;;6.87;2.50;;;20.20;65.70;;;;;;10452227;28;20702;-30
2021/07/19 22:43:39;;;;;;;5.67;2.23;;;20.20;65.70;;;;;;10424442;28;20200;-30
2021/07/19 22:49:02;;;;;;;3.33;2.33;;;20.20;65.30;;;;;;10415393;28;20223;-31
2021/07/19 22:54:24;;;;;;;2.27;1.97;;;20.10;65.20;;;;;;10451870;28;20200;-31
2021/07/19 22:59:46;;;;;;;3.43;2.10;;;20.10;65.20;;;;;;10452767;28;20213;-31
2021/07/19 23:05:11;;;;;;;4.30;2.47;;;20.10;65.30;;;;;;10451814;28;20260;-32
2021/07/19 23:10:33;;;;;;;5.80;2.13;;;20.20;65.70;;;;;;10446545;28;20699;-32
2021/07/19 23:15:55;;;;;;;5.43;2.33;;;20.10;66.00;;;;;;10451651;28;20196;-30
2021/07/19 23:21:20;;;;;;;3.77;2.30;;;20.10;65.80;;;;;;10446611;28;20631;-32
2021/07/19 23:26:42;;;;;;;4.57;2.23;;;20.10;66.00;;;;;;10425072;28;20216;-32
2021/07/19 23:32:05;;;;;;;4.27;2.30;;;20.10;66.10;;;;;;10426290;28;20218;-32
2021/07/19 23:37:28;;;;;;;5.73;3.00;;;20.10;66.00;;;;;;10447609;28;20213;-31
2021/07/19 23:42:51;;;;;;;5.97;2.50;;;20.10;66.20;;;;;;10411741;28;20186;-31
2021/07/19 23:48:13;;;;;;;5.97;2.53;;;20.10;66.30;;;;;;10440803;28;20607;-32
2021/07/19 23:53:36;;;;;;;4.23;2.23;;;20.10;66.40;;;;;;10450518;28;20197;-33
2021/07/19 23:58:58;;;;;;;3.93;2.20;;;20.10;66.20;;;;;;10451459;28;20596;-31
